createdAt,value
2023-04-19T00:01:03.015Z,79.19
2023-04-19T00:03:31.726Z,79.65
2023-04-19T00:05:59.634Z,80.20
2023-04-19T00:08:27.209Z,80.27
2023-04-19T00:10:55.008Z,80.85
2023-04-19T00:13:29.141Z,80.99
2023-04-19T00:15:56.884Z,80.81
2023-04-19T00:18:24.409Z,80.70
2023-04-19T00:20:52.331Z,81.18
2023-04-19T00:23:20.127Z,81.45
2023-04-19T00:25:49.217Z,80.94
2023-04-19T00:28:16.755Z,81.22
2023-04-19T00:30:44.567Z,81.77
2023-04-19T00:33:14.723Z,81.63
2023-04-19T00:35:42.430Z,82.39
2023-04-19T00:38:10.291Z,81.99
2023-04-19T00:40:38.258Z,81.38
2023-04-19T00:43:05.877Z,81.43
2023-04-19T00:45:35.870Z,81.97
2023-04-19T00:48:03.691Z,83.19
2023-04-19T00:50:31.426Z,82.86
2023-04-19T00:52:59.467Z,82.48
2023-04-19T00:55:26.926Z,82.83
2023-04-19T00:57:54.681Z,82.64
2023-04-19T01:00:22.715Z,82.17
2023-04-19T01:02:51.712Z,81.96
2023-04-19T01:05:19.638Z,82.75
2023-04-19T01:07:47.569Z,82.31
2023-04-19T01:10:15.625Z,82.79
2023-04-19T01:12:43.111Z,83.11
2023-04-19T01:15:11.780Z,82.89
2023-04-19T01:17:39.615Z,82.50
2023-04-19T01:20:08.163Z,83.16
2023-04-19T01:22:37.774Z,83.62
2023-04-19T01:25:06.484Z,83.19
2023-04-19T01:27:35.298Z,82.95
2023-04-19T01:30:03.254Z,82.88
2023-04-19T01:32:30.863Z,82.40
2023-04-19T01:34:58.439Z,83.04
2023-04-19T01:37:26.186Z,83.36
2023-04-19T01:39:53.826Z,83.56
2023-04-19T01:42:21.443Z,83.51
2023-04-19T01:44:49.158Z,83.45
2023-04-19T01:47:16.694Z,84.11
2023-04-19T01:49:44.317Z,84.53
2023-04-19T01:52:12.471Z,84.27
2023-04-19T01:54:40.023Z,84.13
2023-04-19T01:57:08.101Z,84.07
2023-04-19T01:59:36.113Z,83.60
2023-04-19T02:02:07.092Z,83.50
2023-04-19T02:04:35.064Z,83.27
2023-04-19T02:07:02.563Z,83.20
2023-04-19T02:09:30.099Z,83.31
2023-04-19T02:11:57.960Z,83.09
2023-04-19T02:14:25.454Z,83.04
2023-04-19T02:16:54.406Z,83.05
2023-04-19T02:19:22.519Z,83.50
2023-04-19T02:21:50.045Z,83.58
2023-04-19T02:24:17.718Z,84.18
2023-04-19T02:26:46.021Z,82.98
2023-04-19T02:29:16.936Z,82.94
2023-04-19T02:31:46.579Z,83.20
2023-04-19T02:34:14.685Z,82.87
2023-04-19T02:36:42.256Z,82.63
2023-04-19T02:39:10.337Z,82.96
2023-04-19T02:41:39.078Z,82.78
2023-04-19T02:44:06.623Z,83.01
2023-04-19T02:46:34.913Z,82.52
2023-04-19T02:49:03.566Z,83.01
2023-04-19T02:51:31.325Z,82.71
2023-04-19T02:53:58.872Z,82.85
2023-04-19T02:56:26.735Z,83.62
2023-04-19T02:58:55.165Z,83.74
2023-04-19T03:01:22.831Z,83.36
2023-04-19T03:03:50.983Z,82.77
2023-04-19T03:06:18.910Z,83.89
2023-04-19T03:08:46.436Z,84.07
2023-04-19T03:11:16.425Z,83.68
2023-04-19T03:13:44.348Z,84.44
2023-04-19T03:16:13.161Z,84.00
2023-04-19T03:18:41.183Z,84.41
2023-04-19T03:21:09.603Z,84.30
2023-04-19T03:23:38.932Z,84.45
2023-04-19T03:26:06.689Z,85.07
2023-04-19T03:28:35.170Z,85.43
2023-04-19T03:31:03.706Z,85.55
2023-04-19T03:33:31.756Z,85.08
2023-04-19T03:35:59.283Z,85.09
2023-04-19T03:38:26.829Z,85.58
2023-04-19T03:40:56.100Z,85.73
2023-04-19T03:43:26.886Z,85.30
2023-04-19T03:45:54.831Z,85.83
2023-04-19T03:48:22.930Z,85.23
2023-04-19T03:50:50.651Z,85.15
2023-04-19T03:53:19.421Z,85.44
2023-04-19T03:55:47.045Z,85.64
2023-04-19T03:58:14.495Z,85.77
2023-04-19T04:00:44.080Z,85.07
2023-04-19T04:03:12.077Z,84.38
2023-04-19T04:05:39.893Z,84.30
2023-04-19T04:08:07.586Z,84.44
2023-04-19T04:10:35.618Z,84.37
2023-04-19T04:13:03.144Z,84.64
2023-04-19T04:15:31.231Z,84.80
2023-04-19T04:17:59.847Z,85.00
2023-04-19T04:20:27.604Z,85.00
2023-04-19T04:22:55.887Z,84.71
2023-04-19T04:25:24.438Z,85.06
2023-04-19T04:27:52.514Z,85.81
2023-04-19T04:30:20.504Z,87.67
2023-04-19T04:32:51.430Z,86.25
2023-04-19T04:35:19.173Z,86.08
2023-04-19T04:37:48.778Z,85.89
2023-04-19T04:40:16.791Z,86.14
2023-04-19T04:42:45.631Z,86.01
2023-04-19T04:45:13.551Z,86.11
2023-04-19T04:47:41.602Z,85.69
2023-04-19T04:50:11.228Z,85.48
2023-04-19T04:52:38.996Z,85.51
2023-04-19T04:55:07.516Z,85.46
2023-04-19T04:57:35.605Z,86.36
2023-04-19T05:00:06.540Z,85.46
2023-04-19T05:02:35.093Z,85.58
2023-04-19T05:05:03.479Z,85.86
2023-04-19T05:07:30.997Z,85.36
2023-04-19T05:09:59.431Z,85.12
2023-04-19T05:12:28.938Z,85.36
2023-04-19T05:14:57.113Z,84.89
2023-04-19T05:17:25.027Z,84.94
2023-04-19T05:19:52.922Z,84.66
2023-04-19T05:22:21.026Z,85.24
2023-04-19T05:24:50.361Z,84.40
2023-04-19T05:27:18.054Z,85.00
2023-04-19T05:29:46.042Z,84.60
2023-04-19T05:34:42.323Z,84.84
2023-04-19T05:37:12.085Z,84.11
2023-04-19T05:39:41.143Z,83.98
2023-04-19T05:42:10.411Z,84.80
2023-04-19T05:44:37.940Z,84.96
2023-04-19T05:47:06.249Z,84.93
2023-04-19T05:49:34.668Z,84.79
2023-04-19T05:52:03.399Z,84.12
2023-04-19T05:54:35.911Z,84.32
2023-04-19T05:57:04.752Z,84.40
2023-04-19T05:59:32.683Z,84.01
2023-04-19T06:02:01.594Z,83.97
2023-04-19T06:04:30.073Z,84.71
2023-04-19T06:06:57.818Z,84.76
2023-04-19T06:09:25.700Z,84.24
2023-04-19T06:11:54.820Z,85.12
2023-04-19T06:14:22.720Z,84.31
2023-04-19T06:16:51.186Z,84.14
2023-04-19T06:19:18.984Z,83.80
2023-04-19T06:21:47.763Z,83.52
2023-04-19T06:24:15.497Z,81.75
2023-04-19T06:26:43.578Z,82.24
2023-04-19T06:29:11.231Z,81.48
2023-04-19T06:31:39.200Z,82.05
2023-04-19T06:34:07.166Z,81.72
2023-04-19T06:36:34.648Z,80.80
2023-04-19T06:39:02.122Z,80.90
2023-04-19T06:41:29.973Z,80.75
2023-04-19T06:43:57.739Z,79.26
2023-04-19T06:46:25.382Z,79.75
2023-04-19T06:48:53.375Z,79.74
2023-04-19T06:51:23.155Z,79.79
2023-04-19T06:53:51.194Z,79.05
2023-04-19T06:56:39.844Z,79.75
2023-04-19T06:59:08.186Z,77.45
2023-04-19T07:01:36.583Z,77.22
2023-04-19T07:04:04.675Z,76.04
2023-04-19T07:06:33.132Z,75.02
2023-04-19T07:09:01.249Z,75.55
2023-04-19T07:11:29.206Z,74.05
2023-04-19T07:13:57.310Z,73.02
2023-04-19T07:16:25.703Z,73.27
2023-04-19T07:18:53.368Z,73.16
2023-04-19T07:21:21.172Z,72.84
2023-04-19T07:23:48.981Z,71.73
2023-04-19T07:26:16.805Z,73.19
2023-04-19T07:28:44.571Z,72.53
2023-04-19T07:31:16.894Z,72.38
2023-04-19T07:33:45.162Z,72.18
2023-04-19T07:36:13.197Z,72.39
2023-04-19T07:38:40.787Z,72.02
2023-04-19T07:41:09.052Z,73.22
2023-04-19T07:43:39.286Z,70.88
2023-04-19T07:46:11.973Z,69.28
2023-04-19T07:48:39.860Z,65.72
2023-04-19T07:51:12.516Z,66.94
2023-04-19T07:53:47.734Z,63.35
2023-04-19T07:56:16.040Z,63.98
2023-04-19T07:58:45.193Z,63.72
2023-04-19T08:01:14.413Z,64.03
2023-04-19T08:03:42.818Z,64.65
2023-04-19T08:06:10.809Z,64.87
2023-04-19T08:08:38.759Z,63.76
2023-04-19T08:11:06.834Z,62.27
2023-04-19T08:13:34.735Z,62.56
2023-04-19T08:18:34.339Z,58.74
2023-04-19T08:21:01.950Z,61.12
2023-04-19T08:23:37.810Z,60.69
2023-04-19T08:26:09.284Z,59.79
2023-04-19T08:28:36.672Z,56.54
2023-04-19T08:31:10.390Z,56.80
2023-04-19T08:33:38.447Z,58.60
2023-04-19T08:36:06.812Z,59.10
2023-04-19T08:38:34.310Z,57.14
2023-04-19T08:41:02.154Z,57.34
2023-04-19T08:43:33.587Z,56.70
2023-04-19T08:46:02.951Z,54.97
2023-04-19T08:48:34.681Z,56.97
2023-04-19T08:51:05.659Z,58.71
2023-04-19T08:53:35.884Z,60.70
2023-04-19T08:56:17.564Z,60.39
2023-04-19T08:59:04.526Z,59.97
2023-04-19T09:01:42.220Z,56.69
2023-04-19T09:04:34.782Z,57.65
2023-04-19T09:06:59.852Z,58.88
2023-04-19T09:09:37.202Z,59.28
2023-04-19T09:12:18.497Z,59.80
2023-04-19T09:15:00.571Z,59.28
2023-04-19T09:17:31.315Z,57.79
2023-04-19T09:19:59.345Z,58.21
2023-04-19T09:22:27.041Z,58.29
2023-04-19T09:27:34.011Z,57.18
2023-04-19T09:30:03.223Z,57.88
2023-04-19T09:32:47.083Z,56.32
2023-04-19T09:35:14.932Z,55.98
2023-04-19T09:40:27.040Z,56.57
2023-04-19T09:45:30.500Z,54.53
2023-04-19T09:48:03.976Z,53.27
2023-04-19T09:50:32.725Z,53.21
2023-04-19T09:53:02.512Z,50.89
2023-04-19T09:55:38.344Z,51.26
2023-04-19T09:58:12.778Z,49.42
2023-04-19T10:00:48.858Z,49.95
2023-04-19T10:03:20.552Z,48.48
2023-04-19T10:05:49.878Z,50.80
2023-04-19T10:08:19.093Z,50.55
2023-04-19T10:10:49.248Z,50.42
2023-04-19T10:13:25.748Z,52.05
2023-04-19T10:15:59.325Z,50.86
2023-04-19T10:18:32.628Z,51.31
2023-04-19T10:21:06.665Z,53.19
2023-04-19T10:23:34.943Z,52.47
2023-04-19T10:26:02.801Z,52.66
2023-04-19T10:28:31.027Z,51.99
2023-04-19T10:31:04.031Z,52.81
2023-04-19T10:33:36.006Z,52.52
2023-04-19T10:36:07.201Z,51.96
2023-04-19T10:38:49.568Z,53.21
2023-04-19T10:41:21.846Z,51.41
2023-04-19T10:44:10.296Z,55.22
2023-04-19T10:46:40.776Z,53.05
2023-04-19T10:49:10.220Z,51.52
2023-04-19T10:51:39.853Z,47.71
2023-04-19T10:54:27.125Z,46.21
2023-04-19T10:57:06.111Z,48.35
2023-04-19T10:59:43.038Z,48.48
2023-04-19T11:02:23.849Z,49.53
2023-04-19T11:04:51.319Z,49.46
2023-04-19T11:07:21.387Z,47.82
2023-04-19T11:09:50.145Z,48.15
2023-04-19T11:12:21.762Z,48.85
2023-04-19T11:14:54.519Z,49.22
2023-04-19T11:17:31.206Z,50.69
2023-04-19T11:20:00.733Z,49.17
2023-04-19T11:22:33.044Z,50.19
2023-04-19T11:25:07.222Z,49.79
2023-04-19T11:27:34.925Z,50.83
2023-04-19T11:30:09.314Z,50.40
2023-04-19T11:32:37.811Z,52.17
2023-04-19T11:35:10.010Z,47.81
2023-04-19T11:37:39.306Z,48.86
2023-04-19T11:40:09.063Z,49.18
2023-04-19T11:42:37.068Z,48.55
2023-04-19T11:45:06.157Z,49.82
2023-04-19T11:47:48.043Z,50.63
2023-04-19T11:50:30.983Z,51.91
2023-04-19T11:52:59.436Z,53.09
2023-04-19T11:55:26.932Z,54.09
2023-04-19T11:57:54.396Z,53.69
2023-04-19T12:00:29.166Z,55.12
2023-04-19T12:02:57.301Z,54.30
2023-04-19T12:05:25.189Z,56.00
2023-04-19T12:08:06.684Z,55.45
2023-04-19T12:10:35.730Z,55.68
2023-04-19T12:13:17.434Z,55.27
2023-04-19T12:15:46.718Z,54.29
2023-04-19T12:18:14.384Z,53.55
2023-04-19T12:20:49.555Z,52.84
2023-04-19T12:23:19.328Z,53.18
2023-04-19T12:25:48.657Z,53.63
2023-04-19T12:28:17.007Z,52.37
2023-04-19T12:30:44.912Z,52.36
2023-04-19T12:33:12.393Z,52.49
2023-04-19T12:35:40.996Z,52.04
2023-04-19T12:38:09.559Z,51.87
2023-04-19T12:40:37.105Z,52.04
2023-04-19T12:43:08.104Z,50.76
2023-04-19T12:45:35.932Z,50.97
2023-04-19T12:48:04.572Z,50.03
2023-04-19T12:50:32.440Z,49.99
2023-04-19T12:53:00.938Z,50.87
2023-04-19T12:55:28.448Z,51.79
2023-04-19T12:57:56.017Z,55.34
2023-04-19T13:00:24.799Z,56.58
2023-04-19T13:02:52.467Z,58.59
2023-04-19T13:05:20.727Z,58.93
2023-04-19T13:07:48.463Z,59.87
2023-04-19T13:10:16.027Z,60.37
2023-04-19T13:12:44.038Z,60.64
2023-04-19T13:15:12.133Z,60.56
2023-04-19T13:17:39.655Z,61.11
2023-04-19T13:20:07.872Z,61.24
2023-04-19T13:22:35.706Z,61.01
2023-04-19T13:25:04.007Z,61.83
2023-04-19T13:27:31.565Z,61.95
2023-04-19T13:29:59.439Z,62.33
2023-04-19T13:32:27.054Z,62.48
2023-04-19T13:34:54.582Z,62.98
2023-04-19T13:37:22.354Z,62.04
2023-04-19T13:39:49.962Z,62.18
2023-04-19T13:42:19.097Z,60.91
2023-04-19T13:44:47.369Z,61.90
2023-04-19T13:47:15.770Z,61.42
2023-04-19T13:49:43.252Z,61.81
2023-04-19T13:52:11.531Z,61.00
2023-04-19T13:54:39.010Z,60.89
2023-04-19T13:57:06.463Z,61.23
2023-04-19T13:59:34.233Z,62.79
2023-04-19T14:04:33.152Z,60.88
2023-04-19T14:07:00.860Z,61.66
2023-04-19T14:09:28.440Z,62.01
2023-04-19T14:11:56.512Z,62.42
2023-04-19T14:14:24.718Z,61.63
2023-04-19T14:16:52.723Z,61.28
2023-04-19T14:19:20.627Z,62.07
2023-04-19T14:21:48.448Z,62.82
2023-04-19T14:24:16.297Z,64.01
2023-04-19T14:26:44.342Z,63.24
2023-04-19T14:29:12.137Z,63.79
2023-04-19T14:31:39.753Z,63.78
2023-04-19T14:34:07.503Z,64.44
2023-04-19T14:36:35.230Z,64.19
2023-04-19T14:39:02.798Z,65.46
2023-04-19T14:41:31.939Z,64.83
2023-04-19T14:43:59.530Z,64.90
2023-04-19T14:46:27.287Z,65.57
2023-04-19T14:48:55.337Z,65.47
2023-04-19T14:51:22.851Z,65.09
2023-04-19T14:53:50.641Z,65.39
2023-04-19T14:56:18.384Z,65.24
2023-04-19T14:58:45.944Z,66.65
2023-04-19T15:01:14.340Z,66.34
2023-04-19T15:03:42.954Z,66.44
2023-04-19T15:06:10.681Z,66.53
2023-04-19T15:08:38.188Z,67.29
2023-04-19T15:11:06.084Z,66.68
2023-04-19T15:13:35.518Z,66.23
2023-04-19T15:16:04.026Z,65.34
2023-04-19T15:18:32.147Z,65.99
2023-04-19T15:20:59.758Z,66.12
2023-04-19T15:23:27.452Z,66.42
2023-04-19T15:25:56.252Z,66.47
2023-04-19T15:28:24.909Z,66.29
2023-04-19T15:31:04.333Z,66.11
2023-04-19T15:33:32.771Z,66.65
2023-04-19T15:36:01.203Z,66.95
2023-04-19T15:38:30.821Z,66.89
2023-04-19T15:40:59.653Z,66.90
2023-04-19T15:43:30.495Z,67.14
2023-04-19T15:45:58.357Z,67.28
2023-04-19T15:48:26.277Z,67.08
2023-04-19T15:50:53.871Z,67.92
2023-04-19T15:53:21.601Z,67.34
2023-04-19T15:55:49.218Z,67.77
2023-04-19T15:58:16.680Z,67.67
2023-04-19T16:00:45.139Z,68.29
2023-04-19T16:03:13.056Z,68.98
2023-04-19T16:05:40.615Z,68.72
2023-04-19T16:08:09.730Z,68.87
2023-04-19T16:10:39.028Z,68.81
2023-04-19T16:13:06.683Z,69.62
2023-04-19T16:15:34.152Z,69.09
2023-04-19T16:18:02.211Z,68.55
2023-04-19T16:20:29.912Z,68.82
2023-04-19T16:22:57.941Z,69.00
2023-04-19T16:25:25.823Z,69.49
2023-04-19T16:27:53.667Z,70.42
2023-04-19T16:30:23.530Z,69.48
2023-04-19T16:32:51.451Z,69.38
2023-04-19T16:35:18.938Z,69.74
2023-04-19T16:37:46.426Z,69.22
2023-04-19T16:40:14.415Z,69.13
2023-04-19T16:42:42.022Z,70.13
2023-04-19T16:45:10.041Z,69.30
2023-04-19T16:47:38.641Z,69.86
2023-04-19T16:50:07.095Z,69.99
2023-04-19T16:52:35.666Z,69.64
2023-04-19T16:55:04.411Z,69.80
2023-04-19T16:57:32.544Z,69.03
2023-04-19T17:00:00.352Z,69.28
2023-04-19T17:02:28.515Z,69.58
2023-04-19T17:04:56.690Z,69.08
2023-04-19T17:07:24.453Z,68.47
2023-04-19T17:09:52.489Z,68.46
2023-04-19T17:12:20.048Z,68.99
2023-04-19T17:14:47.455Z,68.64
2023-04-19T17:17:15.341Z,69.34
2023-04-19T17:19:42.905Z,69.72
2023-04-19T17:22:10.558Z,69.71
2023-04-19T17:24:39.214Z,69.84
2023-04-19T17:27:06.856Z,69.98
2023-04-19T17:29:34.756Z,70.45
2023-04-19T17:32:02.790Z,70.80
2023-04-19T17:34:30.217Z,70.51
2023-04-19T17:37:02.035Z,70.76
2023-04-19T17:39:30.088Z,70.99
2023-04-19T17:41:57.928Z,71.02
2023-04-19T17:44:26.004Z,70.74
2023-04-19T17:46:54.075Z,71.11
2023-04-19T17:49:22.264Z,71.44
2023-04-19T17:51:49.931Z,72.03
2023-04-19T17:54:19.186Z,72.15
2023-04-19T17:56:48.904Z,72.76
2023-04-19T17:59:16.957Z,72.79
2023-04-19T18:01:45.299Z,73.00
2023-04-19T18:04:17.712Z,73.19
2023-04-19T18:06:48.706Z,72.96
2023-04-19T18:09:18.647Z,73.01
2023-04-19T18:11:49.278Z,72.67
2023-04-19T18:14:17.367Z,73.04
2023-04-19T18:16:45.323Z,73.71
2023-04-19T18:19:12.902Z,73.49
2023-04-19T18:21:41.427Z,73.98
2023-04-19T18:24:09.144Z,74.21
2023-04-19T18:26:39.270Z,74.25
2023-04-19T18:29:07.437Z,73.89
2023-04-19T18:31:35.672Z,73.84
2023-04-19T18:34:04.029Z,74.32
2023-04-19T18:36:32.171Z,74.47
2023-04-19T18:39:00.016Z,76.12
2023-04-19T18:41:27.953Z,74.81
2023-04-19T18:46:27.381Z,74.35
2023-04-19T18:48:55.482Z,75.26
2023-04-19T18:51:23.741Z,75.88
2023-04-19T18:53:51.869Z,78.71
2023-04-19T18:56:19.551Z,76.49
2023-04-19T18:58:49.078Z,76.16
2023-04-19T19:01:18.065Z,78.51
2023-04-19T19:04:12.817Z,78.59
2023-04-19T19:06:34.607Z,78.77
2023-04-19T19:09:03.422Z,78.29
2023-04-19T19:14:04.086Z,77.30
2023-04-19T19:16:31.824Z,76.84
2023-04-19T19:19:00.053Z,76.77
2023-04-19T19:21:29.348Z,77.54
2023-04-19T19:23:57.902Z,77.47
2023-04-19T19:26:28.508Z,77.85
2023-04-19T19:28:57.322Z,77.69
2023-04-19T19:31:25.378Z,78.92
2023-04-19T19:34:10.238Z,79.48
2023-04-19T19:36:43.464Z,80.09
2023-04-19T19:39:11.512Z,81.34
2023-04-19T19:44:14.158Z,81.97
2023-04-19T19:46:41.955Z,82.48
2023-04-19T19:49:12.863Z,82.67
2023-04-19T19:51:57.767Z,83.28
2023-04-19T19:54:27.444Z,84.22
2023-04-19T19:59:30.111Z,85.67
2023-04-19T20:02:01.962Z,85.99
2023-04-19T20:04:32.064Z,85.72
2023-04-19T20:09:31.732Z,87.20
2023-04-19T20:11:59.625Z,87.19
2023-04-19T20:14:27.828Z,87.94
2023-04-19T20:16:55.946Z,88.35
2023-04-19T20:19:24.553Z,87.99
2023-04-19T20:21:52.396Z,87.88
2023-04-19T20:24:21.597Z,87.93
2023-04-19T20:26:49.401Z,88.13
2023-04-19T20:29:17.547Z,88.33
2023-04-19T20:31:46.575Z,89.27
2023-04-19T20:34:14.455Z,89.91
2023-04-19T20:36:42.823Z,90.36
2023-04-19T20:39:13.063Z,90.81
2023-04-19T20:41:41.231Z,90.97
2023-04-19T20:44:09.049Z,91.40
2023-04-19T20:46:37.047Z,92.22
2023-04-19T20:49:05.283Z,92.04
2023-04-19T20:51:33.243Z,92.41
2023-04-19T20:54:01.368Z,93.18
2023-04-19T20:56:28.975Z,93.00
2023-04-19T20:58:57.047Z,93.22
2023-04-19T21:01:25.549Z,92.68
2023-04-19T21:03:53.884Z,92.75
2023-04-19T21:06:23.294Z,93.44
2023-04-19T21:08:51.457Z,93.59
2023-04-19T21:11:19.218Z,93.55
2023-04-19T21:13:46.617Z,93.99
2023-04-19T21:16:14.314Z,93.52
2023-04-19T21:18:41.913Z,94.74
2023-04-19T21:21:09.423Z,95.31
2023-04-19T21:23:38.680Z,94.49
2023-04-19T21:26:06.293Z,95.68
2023-04-19T21:28:34.920Z,95.28
2023-04-19T21:31:03.065Z,95.87
2023-04-19T21:33:31.043Z,95.73
2023-04-19T21:35:58.473Z,95.97
2023-04-19T21:38:26.310Z,96.82
2023-04-19T21:40:53.845Z,97.12
2023-04-19T21:43:23.187Z,97.13
2023-04-19T21:45:51.083Z,98.21
2023-04-19T21:48:18.546Z,97.41
2023-04-19T21:50:46.202Z,97.26
2023-04-19T21:53:14.014Z,98.23
2023-04-19T21:55:41.466Z,98.73
2023-04-19T21:58:09.518Z,99.32
2023-04-19T22:00:37.310Z,98.89
2023-04-19T22:03:05.408Z,99.56
2023-04-19T22:05:33.042Z,100.00
2023-04-19T22:08:00.511Z,100.00
2023-04-19T22:10:28.522Z,100.00
2023-04-19T22:12:58.747Z,99.88
2023-04-19T22:15:26.937Z,100.00
2023-04-19T22:17:54.915Z,100.00
2023-04-19T22:20:24.010Z,100.00
2023-04-19T22:22:51.754Z,100.00
2023-04-19T22:25:19.610Z,100.00
2023-04-19T22:27:48.838Z,100.00
2023-04-19T22:30:16.594Z,100.00
2023-04-19T22:32:44.446Z,100.00
2023-04-19T22:35:12.004Z,100.00
2023-04-19T22:37:39.463Z,100.00
2023-04-19T22:40:08.050Z,100.00
2023-04-19T22:42:37.101Z,100.00
2023-04-19T22:45:05.166Z,100.00
2023-04-19T22:47:33.185Z,100.00
2023-04-19T22:50:01.275Z,100.00
2023-04-19T22:52:28.835Z,100.00
2023-04-19T22:54:56.700Z,100.00
2023-04-19T22:57:24.256Z,100.00
2023-04-19T22:59:51.976Z,100.00
2023-04-19T23:02:19.772Z,100.00
2023-04-19T23:04:48.648Z,100.00
2023-04-19T23:07:16.245Z,100.00
2023-04-19T23:09:44.112Z,100.00
2023-04-19T23:12:15.762Z,100.00
2023-04-19T23:14:43.292Z,100.00
2023-04-19T23:17:11.510Z,100.00
2023-04-19T23:19:38.995Z,100.00
2023-04-19T23:22:06.524Z,100.00
2023-04-19T23:24:36.177Z,100.00
2023-04-19T23:27:04.517Z,100.00
2023-04-19T23:29:32.181Z,100.00
2023-04-19T23:32:01.942Z,100.00
2023-04-19T23:34:29.452Z,100.00
2023-04-19T23:36:57.397Z,100.00
2023-04-19T23:39:25.621Z,100.00
2023-04-19T23:41:53.151Z,100.00
2023-04-19T23:44:20.638Z,100.00
2023-04-19T23:46:48.421Z,100.00
2023-04-19T23:49:16.296Z,100.00
2023-04-19T23:51:44.001Z,100.00
2023-04-19T23:54:11.858Z,100.00
2023-04-19T23:56:39.328Z,100.00
2023-04-19T23:59:07.158Z,100.00
